Dawson, Alabama
Current Conditions -  °F | °C
As of 12:15 PM on Sunday 25 Jan 2015 (Local Time) from K4A9 Reporting Station
Clear Clear  
Wind Chill: 54°   Ceiling: Unl
Heat Index: 54°   Visibility: 10mi
Dew Point: 32°   Wind: 10mph
Humidity: 44%   Direction: 200°SSW
Pressure: 29.77"   Gusts: NA
Location:  34.3°N, 85.93°W
Report Text: K4A9 251815Z AUTO 20009KT 10SM CLR 12/00 A2977 RMK AO2
Loading
Personal Weather Stations






























Interactive Weather Map New forecast layout! Learn more

10-Day Weather Forecast

Advertisements
Track Severe Weather on mobile